createdAt,value
2022-11-16T00:02:19.872Z,13.10
2022-11-16T00:04:48.658Z,12.77
2022-11-16T00:07:17.524Z,12.43
2022-11-16T00:09:48.228Z,12.73
2022-11-16T00:12:16.918Z,13.13
2022-11-16T00:14:45.520Z,12.60
2022-11-16T00:17:14.257Z,12.50
2022-11-16T00:19:42.998Z,11.40
2022-11-16T00:22:11.634Z,12.10
2022-11-16T00:24:40.422Z,11.80
2022-11-16T00:27:10.584Z,12.00
2022-11-16T00:29:39.313Z,11.23
2022-11-16T00:32:07.975Z,12.13
2022-11-16T00:34:36.655Z,12.20
2022-11-16T00:37:05.382Z,12.00
2022-11-16T00:39:34.540Z,11.13
2022-11-16T00:42:03.329Z,12.00
2022-11-16T00:44:33.696Z,11.17
2022-11-16T00:47:02.389Z,11.03
2022-11-16T00:49:30.969Z,11.17
2022-11-16T00:51:59.791Z,11.17
2022-11-16T00:54:28.965Z,11.10
2022-11-16T00:56:57.649Z,11.13
2022-11-16T00:59:27.629Z,10.77
2022-11-16T01:02:00.354Z,12.07
2022-11-16T01:04:29.036Z,10.90
2022-11-16T01:06:57.736Z,10.97
2022-11-16T01:09:26.602Z,11.47
2022-11-16T01:12:10.692Z,11.23
2022-11-16T01:14:41.728Z,11.33
2022-11-16T01:17:12.240Z,12.53
2022-11-16T01:19:41.642Z,11.23
2022-11-16T01:22:10.247Z,11.17
2022-11-16T01:24:39.018Z,10.77
2022-11-16T01:27:07.615Z,11.67
2022-11-16T01:29:39.084Z,11.20
2022-11-16T01:32:07.812Z,11.00
2022-11-16T01:34:38.566Z,11.10
2022-11-16T01:37:19.183Z,11.20
2022-11-16T01:39:49.897Z,11.03
2022-11-16T01:42:19.906Z,11.50
2022-11-16T01:45:02.827Z,10.77
2022-11-16T01:47:31.721Z,10.77
2022-11-16T01:50:09.356Z,11.60
2022-11-16T01:52:42.840Z,12.13
2022-11-16T01:55:12.675Z,11.40
2022-11-16T01:58:13.488Z,12.30
2022-11-16T02:00:42.619Z,11.93
2022-11-16T02:03:29.092Z,11.27
2022-11-16T02:06:31.807Z,12.93
2022-11-16T02:09:47.145Z,12.27
2022-11-16T02:12:32.705Z,13.23
2022-11-16T02:15:11.816Z,14.07
2022-11-16T02:17:49.919Z,13.63
2022-11-16T02:20:45.392Z,14.10
2022-11-16T02:23:30.340Z,13.63
2022-11-16T02:26:08.295Z,14.27
2022-11-16T02:28:49.782Z,13.87
2022-11-16T02:31:28.730Z,14.00
2022-11-16T02:34:01.449Z,13.63
2022-11-16T02:36:30.237Z,13.37
2022-11-16T02:39:04.073Z,14.10
2022-11-16T02:41:35.194Z,14.43
2022-11-16T02:44:08.432Z,13.77
2022-11-16T02:46:44.423Z,14.53
2022-11-16T02:49:18.230Z,13.70
2022-11-16T02:51:48.485Z,14.27
2022-11-16T02:54:19.578Z,14.23
2022-11-16T02:56:56.919Z,14.50
2022-11-16T02:59:34.639Z,13.80
2022-11-16T03:02:16.567Z,14.57
2022-11-16T03:04:49.762Z,14.43
2022-11-16T03:07:24.189Z,15.00
2022-11-16T03:09:54.785Z,15.60
2022-11-16T03:12:29.189Z,15.30
2022-11-16T03:15:02.771Z,15.90
2022-11-16T03:17:38.842Z,14.90
2022-11-16T03:20:12.994Z,15.57
2022-11-16T03:22:45.414Z,15.03
2022-11-16T03:25:17.722Z,15.43
2022-11-16T03:27:53.983Z,15.77
2022-11-16T03:30:24.377Z,16.63
2022-11-16T03:33:05.355Z,15.80
2022-11-16T03:35:39.813Z,16.17
2022-11-16T03:38:09.745Z,15.97
2022-11-16T03:40:45.436Z,16.03
2022-11-16T03:43:14.973Z,16.07
2022-11-16T03:45:44.646Z,15.10
2022-11-16T03:48:14.901Z,16.43
2022-11-16T03:50:45.105Z,16.80
2022-11-16T03:53:14.758Z,15.77
2022-11-16T03:55:49.647Z,15.23
2022-11-16T03:58:19.275Z,15.90
2022-11-16T04:00:48.565Z,15.47
2022-11-16T04:03:18.681Z,15.60
2022-11-16T04:06:02.748Z,15.37
2022-11-16T04:08:49.017Z,15.20
2022-11-16T04:11:37.604Z,15.60
2022-11-16T04:14:23.859Z,16.13
2022-11-16T04:17:09.824Z,16.07
2022-11-16T04:19:58.433Z,15.93
2022-11-16T04:22:50.383Z,15.53
2022-11-16T04:25:22.887Z,15.30
2022-11-16T04:28:09.018Z,17.03
2022-11-16T04:30:51.966Z,16.63
2022-11-16T04:33:38.885Z,16.63
2022-11-16T04:36:27.698Z,16.73
2022-11-16T04:38:56.548Z,17.10
2022-11-16T04:41:43.115Z,16.30
2022-11-16T04:44:12.324Z,15.83
2022-11-16T04:46:58.662Z,17.07
2022-11-16T04:49:28.281Z,15.63
2022-11-16T04:52:00.514Z,16.50
2022-11-16T04:54:31.791Z,17.50
2022-11-16T04:57:00.859Z,16.13
2022-11-16T04:59:30.142Z,17.10
2022-11-16T05:02:10.842Z,17.13
2022-11-16T05:04:51.180Z,16.37
2022-11-16T05:07:23.152Z,16.07
2022-11-16T05:09:54.261Z,17.37
2022-11-16T05:12:24.945Z,16.37
2022-11-16T05:14:58.086Z,17.90
2022-11-16T05:17:29.794Z,16.70
2022-11-16T05:20:18.558Z,16.40
2022-11-16T05:22:56.476Z,16.73
2022-11-16T05:25:31.276Z,17.17
2022-11-16T05:28:03.296Z,17.73
2022-11-16T05:30:34.840Z,16.83
2022-11-16T05:33:05.297Z,18.10
2022-11-16T05:35:38.457Z,17.93
2022-11-16T05:38:09.550Z,17.37
2022-11-16T05:40:43.070Z,16.80
2022-11-16T05:43:12.477Z,16.97
2022-11-16T05:45:49.684Z,17.80
2022-11-16T05:48:18.504Z,18.83
2022-11-16T05:50:47.311Z,19.13
2022-11-16T05:53:24.508Z,17.97
2022-11-16T05:55:53.672Z,17.17
2022-11-16T05:58:23.332Z,17.17
2022-11-16T06:00:53.295Z,17.50
2022-11-16T06:03:22.340Z,17.80
2022-11-16T06:05:55.669Z,18.27
2022-11-16T06:08:26.865Z,18.77
2022-11-16T06:10:56.958Z,17.40
2022-11-16T06:13:25.536Z,17.27
2022-11-16T06:15:58.664Z,18.47
2022-11-16T06:18:28.074Z,18.20
2022-11-16T06:20:57.164Z,17.43
2022-11-16T06:23:27.356Z,18.97
2022-11-16T06:25:56.884Z,18.20
2022-11-16T06:28:28.838Z,17.23
2022-11-16T06:30:58.289Z,17.53
2022-11-16T06:33:33.177Z,17.60
2022-11-16T06:36:04.722Z,17.53
2022-11-16T06:38:35.651Z,18.50
2022-11-16T06:41:05.068Z,18.17
2022-11-16T06:43:39.306Z,18.87
2022-11-16T06:46:08.817Z,17.97
2022-11-16T06:48:40.002Z,17.97
2022-11-16T06:51:13.296Z,17.70
2022-11-16T06:53:43.566Z,18.03
2022-11-16T06:56:15.859Z,18.87
2022-11-16T06:58:53.286Z,17.83
2022-11-16T07:01:23.200Z,17.30
2022-11-16T07:03:55.761Z,17.27
2022-11-16T07:06:24.489Z,17.30
2022-11-16T07:08:54.892Z,18.00
2022-11-16T07:11:27.417Z,17.53
2022-11-16T07:13:56.396Z,17.23
2022-11-16T07:16:25.197Z,16.43
2022-11-16T07:18:59.315Z,17.07
2022-11-16T07:21:31.333Z,17.50
2022-11-16T07:24:03.943Z,16.63
2022-11-16T07:26:34.630Z,17.70
2022-11-16T07:29:09.466Z,17.37
2022-11-16T07:31:42.320Z,16.90
2022-11-16T07:35:27.699Z,18.93
2022-11-16T07:39:09.407Z,17.77
2022-11-16T07:42:53.010Z,17.33
2022-11-16T07:46:48.500Z,16.73
2022-11-16T07:49:37.673Z,17.67
2022-11-16T07:52:12.085Z,17.50
2022-11-16T07:54:51.350Z,16.53
2022-11-16T07:57:21.163Z,16.30
2022-11-16T07:59:50.874Z,16.70
2022-11-16T08:02:19.582Z,16.67
2022-11-16T08:04:49.721Z,17.47
2022-11-16T08:07:20.140Z,17.77
2022-11-16T08:09:54.149Z,17.10
2022-11-16T08:12:24.514Z,17.87
2022-11-16T08:14:54.233Z,17.23
2022-11-16T08:17:22.928Z,16.60
2022-11-16T08:19:54.645Z,16.60
2022-11-16T08:22:23.802Z,16.90
2022-11-16T08:24:52.436Z,17.23
2022-11-16T08:27:21.266Z,16.80
2022-11-16T08:29:54.070Z,16.50
2022-11-16T08:32:23.129Z,16.43
2022-11-16T08:34:53.366Z,17.30
2022-11-16T08:37:22.197Z,16.57
2022-11-16T08:39:50.838Z,17.33
2022-11-16T08:42:21.518Z,17.70
2022-11-16T08:44:51.474Z,17.80
2022-11-16T08:47:21.962Z,18.53
2022-11-16T08:50:01.176Z,18.73
2022-11-16T08:52:32.458Z,18.27
2022-11-16T08:55:02.647Z,17.50
2022-11-16T08:57:31.862Z,17.83
2022-11-16T09:00:05.962Z,18.33
2022-11-16T09:02:34.629Z,16.67
2022-11-16T09:05:05.140Z,15.87
2022-11-16T09:07:33.942Z,16.17
2022-11-16T09:10:02.638Z,16.83
2022-11-16T09:12:31.346Z,14.50
2022-11-16T09:15:00.104Z,15.13
2022-11-16T09:17:28.813Z,14.97
2022-11-16T09:19:57.459Z,15.50
2022-11-16T09:22:27.571Z,15.13
2022-11-16T09:24:56.347Z,16.00
2022-11-16T09:27:25.012Z,14.57
2022-11-16T09:29:53.644Z,14.73
2022-11-16T09:32:22.293Z,15.20
2022-11-16T09:34:50.954Z,15.13
2022-11-16T09:37:19.671Z,15.17
2022-11-16T09:39:49.730Z,15.30
2022-11-16T09:42:36.826Z,14.50
2022-11-16T09:45:08.597Z,14.33
2022-11-16T09:47:45.703Z,14.70
2022-11-16T09:50:28.301Z,15.43
2022-11-16T09:53:01.519Z,14.33
2022-11-16T09:55:38.147Z,13.90
2022-11-16T09:58:17.565Z,14.23
2022-11-16T10:00:51.564Z,14.23
2022-11-16T10:03:20.288Z,13.23
2022-11-16T10:05:55.496Z,14.60
2022-11-16T10:08:32.498Z,13.70
2022-11-16T10:11:13.116Z,13.50
2022-11-16T10:13:49.985Z,13.67
2022-11-16T10:16:25.169Z,12.93
2022-11-16T10:19:00.804Z,12.80
2022-11-16T10:21:49.248Z,12.93
2022-11-16T10:24:44.382Z,12.53
2022-11-16T10:27:38.027Z,11.40
2022-11-16T10:30:14.184Z,12.07
2022-11-16T10:32:50.762Z,11.90
2022-11-16T10:35:25.202Z,12.13
2022-11-16T10:37:54.001Z,10.60
2022-11-16T10:40:25.171Z,11.10
2022-11-16T10:43:06.174Z,11.50
2022-11-16T10:45:40.602Z,9.87
2022-11-16T10:48:19.072Z,10.60
2022-11-16T10:50:50.002Z,9.40
2022-11-16T10:53:30.194Z,10.23
2022-11-16T10:56:14.680Z,9.87
2022-11-16T10:58:57.130Z,9.00
2022-11-16T11:01:37.626Z,10.17
2022-11-16T11:04:18.193Z,9.73
2022-11-16T11:06:48.175Z,9.73
2022-11-16T11:09:29.160Z,9.90
2022-11-16T11:12:31.631Z,9.27
2022-11-16T11:15:04.135Z,9.80
2022-11-16T11:17:34.171Z,9.57
2022-11-16T11:20:06.092Z,9.10
2022-11-16T11:22:42.303Z,10.10
2022-11-16T11:25:21.369Z,9.83
2022-11-16T11:27:50.900Z,10.87
2022-11-16T11:30:23.274Z,10.83
2022-11-16T11:32:53.175Z,10.40
2022-11-16T11:35:28.041Z,10.90
2022-11-16T11:38:02.184Z,11.27
2022-11-16T11:40:34.034Z,11.20
2022-11-16T11:43:05.249Z,10.93
2022-11-16T11:45:45.925Z,11.10
2022-11-16T11:48:29.216Z,11.73
2022-11-16T11:51:02.361Z,11.73
2022-11-16T11:53:51.711Z,11.47
2022-11-16T11:56:20.823Z,11.97
2022-11-16T11:58:51.515Z,12.03
2022-11-16T12:01:57.174Z,11.60
2022-11-16T12:05:10.666Z,11.90
2022-11-16T12:08:04.325Z,11.93
2022-11-16T12:10:39.818Z,12.20
2022-11-16T12:13:29.454Z,11.23
2022-11-16T12:16:09.230Z,11.70
2022-11-16T12:18:52.567Z,11.38
2022-11-16T12:21:29.127Z,11.35
2022-11-16T12:24:11.224Z,12.23
2022-11-16T12:26:51.320Z,12.33
2022-11-16T12:29:27.295Z,11.57
2022-11-16T12:32:25.532Z,12.53
2022-11-16T12:35:16.321Z,12.00
2022-11-16T12:37:51.715Z,12.97
2022-11-16T12:40:37.240Z,12.00
2022-11-16T12:43:16.835Z,12.10
2022-11-16T12:46:00.179Z,11.70
2022-11-16T12:48:45.801Z,12.27
2022-11-16T12:51:31.545Z,12.63
2022-11-16T12:54:17.945Z,13.47
2022-11-16T12:56:57.115Z,12.90
2022-11-16T12:59:42.126Z,13.23
2022-11-16T13:02:25.564Z,12.47
2022-11-16T13:05:00.769Z,12.40
2022-11-16T13:07:32.889Z,12.97
2022-11-16T13:10:08.429Z,13.10
2022-11-16T13:12:39.671Z,13.70
2022-11-16T13:15:19.416Z,13.73
2022-11-16T13:17:54.683Z,14.33
2022-11-16T13:20:33.494Z,13.40
2022-11-16T13:23:07.057Z,13.00
2022-11-16T13:25:40.100Z,13.90
2022-11-16T13:28:18.764Z,12.73
2022-11-16T13:30:58.760Z,12.33
2022-11-16T13:33:34.992Z,12.70
2022-11-16T13:36:37.249Z,12.70
2022-11-16T13:39:06.514Z,12.10
2022-11-16T13:41:37.066Z,11.80
2022-11-16T13:44:14.856Z,12.77
2022-11-16T13:46:56.209Z,11.50
2022-11-16T13:49:29.508Z,11.53
2022-11-16T13:52:11.601Z,11.90
2022-11-16T13:54:52.535Z,11.03
2022-11-16T13:57:25.255Z,11.47
2022-11-16T14:00:09.446Z,11.27
2022-11-16T14:02:39.430Z,11.20
2022-11-16T14:05:17.653Z,11.05
2022-11-16T14:07:49.998Z,10.20
2022-11-16T14:11:01.120Z,11.02
2022-11-16T14:13:40.587Z,10.70
2022-11-16T14:16:55.065Z,10.73
2022-11-16T14:19:58.332Z,10.83
2022-11-16T14:22:44.612Z,11.43
2022-11-16T14:25:26.245Z,11.07
2022-11-16T14:28:03.134Z,11.23
2022-11-16T14:30:36.939Z,11.53
2022-11-16T14:33:05.848Z,11.87
2022-11-16T14:35:38.926Z,11.03
2022-11-16T14:38:28.269Z,12.27
2022-11-16T14:40:59.959Z,12.43
2022-11-16T14:43:32.910Z,13.17
2022-11-16T14:46:06.247Z,13.03
2022-11-16T14:48:35.767Z,13.37
2022-11-16T14:51:10.187Z,13.63
2022-11-16T14:53:45.803Z,14.67
2022-11-16T14:56:16.125Z,15.07
2022-11-16T14:58:53.483Z,15.03
2022-11-16T15:01:25.300Z,15.67
2022-11-16T15:03:57.775Z,15.50
2022-11-16T15:06:28.279Z,16.60
2022-11-16T15:09:01.851Z,16.93
2022-11-16T15:11:47.089Z,17.67
2022-11-16T15:14:20.486Z,18.10
2022-11-16T15:16:51.495Z,18.57
2022-11-16T15:19:20.303Z,19.37
2022-11-16T15:21:54.996Z,20.60
2022-11-16T15:24:30.938Z,20.13
2022-11-16T15:27:12.358Z,19.00
2022-11-16T15:29:41.344Z,19.50
2022-11-16T15:32:17.047Z,19.60
2022-11-16T15:34:50.501Z,20.90
2022-11-16T15:37:29.891Z,21.00
2022-11-16T15:40:00.158Z,22.17
2022-11-16T15:42:30.306Z,22.87
2022-11-16T15:45:02.580Z,22.67
2022-11-16T15:47:31.861Z,24.23
2022-11-16T15:50:00.681Z,25.73
2022-11-16T15:52:54.756Z,26.53
2022-11-16T15:55:32.006Z,27.50
2022-11-16T15:58:07.230Z,28.73
2022-11-16T16:00:38.092Z,29.13
2022-11-16T16:03:16.209Z,30.13
2022-11-16T16:05:45.248Z,29.40
2022-11-16T16:08:33.342Z,29.67
2022-11-16T16:11:05.158Z,28.80
2022-11-16T16:13:36.686Z,28.10
2022-11-16T16:16:27.473Z,28.33
2022-11-16T16:19:00.832Z,28.13
2022-11-16T16:21:43.325Z,27.53
2022-11-16T16:24:41.493Z,30.23
2022-11-16T16:27:15.645Z,28.30
2022-11-16T16:29:44.799Z,30.37
2022-11-16T16:32:17.323Z,30.00
2022-11-16T16:34:46.016Z,28.70
2022-11-16T16:37:14.907Z,31.17
2022-11-16T16:39:45.272Z,36.47
2022-11-16T16:42:17.081Z,32.67
2022-11-16T16:44:47.293Z,33.37
2022-11-16T16:47:16.870Z,28.80
2022-11-16T16:49:45.969Z,33.17
2022-11-16T16:52:15.252Z,32.70
2022-11-16T16:54:45.679Z,40.17
2022-11-16T16:57:16.034Z,38.83
2022-11-16T16:59:45.605Z,34.67
2022-11-16T17:02:14.620Z,36.93
2022-11-16T17:04:44.149Z,29.70
2022-11-16T17:07:12.931Z,27.27
2022-11-16T17:09:41.708Z,26.83
2022-11-16T17:12:12.312Z,25.37
2022-11-16T17:14:42.538Z,29.37
2022-11-16T17:17:11.232Z,26.10
2022-11-16T17:19:39.992Z,22.67
2022-11-16T17:22:08.448Z,26.50
2022-11-16T17:24:38.451Z,26.13
2022-11-16T17:27:06.961Z,27.03
2022-11-16T17:29:37.074Z,28.83
2022-11-16T17:32:06.312Z,30.20
2022-11-16T17:34:35.042Z,28.90
2022-11-16T17:37:03.681Z,33.70
2022-11-16T17:39:32.322Z,39.83
2022-11-16T17:42:03.328Z,32.10
2022-11-16T17:44:32.249Z,29.27
2022-11-16T17:47:02.583Z,31.00
2022-11-16T17:49:31.172Z,30.43
2022-11-16T17:52:01.795Z,31.90
2022-11-16T17:54:30.495Z,31.83
2022-11-16T17:57:00.288Z,32.53
2022-11-16T17:59:29.992Z,31.13
2022-11-16T18:01:58.973Z,34.50
2022-11-16T18:04:29.174Z,34.63
2022-11-16T18:06:59.802Z,31.20
2022-11-16T18:09:28.573Z,33.87
2022-11-16T18:11:58.695Z,32.63
2022-11-16T18:14:28.117Z,34.97
2022-11-16T18:16:56.714Z,38.80
2022-11-16T18:19:25.473Z,37.13
2022-11-16T18:21:55.596Z,38.67
2022-11-16T18:24:24.259Z,36.93
2022-11-16T18:26:52.861Z,40.20
2022-11-16T18:29:22.367Z,34.13
2022-11-16T18:31:51.015Z,33.80
2022-11-16T18:34:19.658Z,34.93
2022-11-16T18:36:50.950Z,31.30
2022-11-16T18:39:21.173Z,29.13
2022-11-16T18:41:55.065Z,30.17
2022-11-16T18:44:24.429Z,29.40
2022-11-16T18:46:53.017Z,27.67
2022-11-16T18:49:21.887Z,28.83
2022-11-16T18:51:50.759Z,28.23
2022-11-16T18:54:20.983Z,29.03
2022-11-16T18:56:51.049Z,32.20
2022-11-16T18:59:19.731Z,30.20
2022-11-16T19:01:48.444Z,31.13
2022-11-16T19:04:17.016Z,38.13
2022-11-16T19:06:45.806Z,34.13
2022-11-16T19:09:15.621Z,35.07
2022-11-16T19:11:45.956Z,30.03
2022-11-16T19:14:14.801Z,31.53
2022-11-16T19:16:54.075Z,28.47
2022-11-16T19:19:24.319Z,28.67
2022-11-16T19:21:53.302Z,26.27
2022-11-16T19:24:22.124Z,27.07
2022-11-16T19:26:53.711Z,26.93
2022-11-16T19:29:22.484Z,28.23
2022-11-16T19:31:51.390Z,26.57
2022-11-16T19:34:20.075Z,27.67
2022-11-16T19:36:49.058Z,28.63
2022-11-16T19:39:18.466Z,29.57
2022-11-16T19:41:49.488Z,26.93
2022-11-16T19:44:20.333Z,26.13
2022-11-16T19:46:49.860Z,28.53
2022-11-16T19:49:20.397Z,27.33
2022-11-16T19:51:50.331Z,24.73
2022-11-16T19:54:19.420Z,26.73
2022-11-16T19:56:54.746Z,25.70
2022-11-16T19:59:26.300Z,26.77
2022-11-16T20:01:55.548Z,28.10
2022-11-16T20:04:25.749Z,27.60
2022-11-16T20:06:55.135Z,28.87
2022-11-16T20:09:24.734Z,30.23
2022-11-16T20:11:55.419Z,31.47
2022-11-16T20:14:26.689Z,29.70
2022-11-16T20:16:56.328Z,29.30
2022-11-16T20:19:25.919Z,28.93
2022-11-16T20:21:55.805Z,29.77
2022-11-16T20:24:25.311Z,28.93
2022-11-16T20:26:54.915Z,29.10
2022-11-16T20:29:26.109Z,29.77
2022-11-16T20:31:55.489Z,29.97
2022-11-16T20:34:24.504Z,30.57
2022-11-16T20:36:53.677Z,30.40
2022-11-16T20:39:23.406Z,31.07
2022-11-16T20:41:52.438Z,28.67
2022-11-16T20:44:22.742Z,29.87
2022-11-16T20:46:53.827Z,30.13
2022-11-16T20:49:23.238Z,31.13
2022-11-16T20:51:52.261Z,32.13
2022-11-16T20:54:21.361Z,32.10
2022-11-16T20:56:50.768Z,30.63
2022-11-16T20:59:19.926Z,32.17
2022-11-16T21:01:49.101Z,31.23
2022-11-16T21:04:20.780Z,31.13
2022-11-16T21:06:49.634Z,31.17
2022-11-16T21:09:23.017Z,30.77
2022-11-16T21:12:09.179Z,29.37
2022-11-16T21:14:39.187Z,31.50
2022-11-16T21:17:07.955Z,29.53
2022-11-16T21:19:38.114Z,28.70
2022-11-16T21:22:06.835Z,28.50
2022-11-16T21:24:35.554Z,28.87
2022-11-16T21:27:04.176Z,28.67
2022-11-16T21:29:32.887Z,26.20
2022-11-16T21:32:01.543Z,26.50
2022-11-16T21:34:34.666Z,25.97
2022-11-16T21:37:07.542Z,25.13
2022-11-16T21:39:36.154Z,24.40
2022-11-16T21:42:05.223Z,24.30
2022-11-16T21:44:42.052Z,23.33
2022-11-16T21:47:12.167Z,23.97
2022-11-16T21:50:02.353Z,23.37
2022-11-16T21:52:30.945Z,22.13
2022-11-16T21:55:02.146Z,21.63
2022-11-16T21:57:30.698Z,21.00
2022-11-16T22:00:01.048Z,20.10
2022-11-16T22:02:29.772Z,20.73
2022-11-16T22:05:15.551Z,19.40
2022-11-16T22:07:45.829Z,18.43
2022-11-16T22:10:14.941Z,18.53
2022-11-16T22:12:43.544Z,16.73
2022-11-16T22:15:12.706Z,17.10
2022-11-16T22:17:44.544Z,17.53
2022-11-16T22:20:13.882Z,16.67
2022-11-16T22:22:42.387Z,16.53
2022-11-16T22:25:14.038Z,17.50
2022-11-16T22:28:13.459Z,15.93
2022-11-16T22:30:31.691Z,16.87
2022-11-16T22:33:00.450Z,16.80
2022-11-16T22:35:29.147Z,16.73
2022-11-16T22:37:59.357Z,17.23
2022-11-16T22:40:29.509Z,17.70
2022-11-16T22:42:58.954Z,17.30
2022-11-16T22:45:28.097Z,17.33
2022-11-16T22:47:56.887Z,17.17
2022-11-16T22:50:25.459Z,17.50
2022-11-16T22:52:54.186Z,17.10
2022-11-16T22:55:22.851Z,16.43
2022-11-16T22:57:53.085Z,16.97
2022-11-16T23:00:22.168Z,16.80
2022-11-16T23:02:50.939Z,16.13
2022-11-16T23:05:19.647Z,16.87
2022-11-16T23:07:48.343Z,16.57
2022-11-16T23:10:18.077Z,17.20
2022-11-16T23:13:23.503Z,16.83
2022-11-16T23:15:52.118Z,16.43
2022-11-16T23:18:20.875Z,17.20
2022-11-16T23:21:07.171Z,16.47
2022-11-16T23:23:52.919Z,17.33
2022-11-16T23:26:41.726Z,16.23
2022-11-16T23:29:12.670Z,16.73
2022-11-16T23:31:41.395Z,17.03
2022-11-16T23:34:10.195Z,16.77
2022-11-16T23:36:38.787Z,17.60
2022-11-16T23:39:07.458Z,18.30
2022-11-16T23:41:53.231Z,18.53
2022-11-16T23:44:23.505Z,17.97
2022-11-16T23:46:52.084Z,17.97
2022-11-16T23:49:20.728Z,19.27
2022-11-16T23:51:49.507Z,18.97
2022-11-16T23:54:18.254Z,19.73
2022-11-16T23:56:47.011Z,20.33
2022-11-16T23:59:15.765Z,19.43
